Time;durP1;ratioP1;P1;durP2;ratioP2;P2;SDS_P1;SDS_P2;PMS_P1;PMS_P2;Temp;Humidity;BMP_temperature;BMP_pressure;BME280_temperature;BME280_humidity;BME280_pressure;Samples;Min_cycle;Max_cycle;Signal;HPM_P1;HPM_P2
2022/12/17 13:06:44;;;;;;;45.72;23.25;;;;;;;-3.06;100.00;101512.69;5052304;28;20681;-70
2022/12/17 13:09:24;;;;;;;46.47;23.50;;;;;;;-3.06;100.00;101510.06;5053493;28;20234;-69
2022/12/17 13:11:57;;;;;;;42.42;21.77;;;;;;;-3.29;100.00;101512.06;5044821;28;20191;-74
2022/12/17 13:14:29;;;;;;;43.63;22.67;;;;;;;-3.08;100.00;101502.97;5042000;28;20211;-71
2022/12/17 13:17:02;;;;;;;47.03;22.75;;;;;;;-2.89;100.00;101502.63;5039254;28;20201;-72
2022/12/17 13:19:36;;;;;;;44.70;23.05;;;;;;;-2.74;100.00;101503.06;5035763;28;20226;-72
2022/12/17 13:22:11;;;;;;;42.30;20.73;;;;;;;-2.80;100.00;101494.97;5035774;28;20558;-75
2022/12/17 13:24:38;;;;;;;48.80;23.17;;;;;;;-2.75;100.00;101490.69;5036966;28;20188;-72
2022/12/17 13:27:05;;;;;;;48.47;24.23;;;;;;;-2.81;100.00;101490.53;5036533;28;20682;-73
2022/12/17 13:29:34;;;;;;;42.30;21.92;;;;;;;-2.82;100.00;101498.41;5034876;28;20603;-73
2022/12/17 13:32:09;;;;;;;46.53;23.63;;;;;;;-3.11;100.00;101506.41;5035753;28;20567;-72
2022/12/17 13:34:59;;;;;;;44.85;23.17;;;;;;;-3.10;100.00;101507.31;5036220;28;20669;-71
2022/12/17 13:37:38;;;;;;;41.80;22.67;;;;;;;-3.11;100.00;101514.31;5034689;28;20208;-73
2022/12/17 13:40:22;;;;;;;51.25;24.77;;;;;;;-3.00;100.00;101504.09;5020261;28;20707;-71
2022/12/17 13:42:49;;;;;;;49.28;23.75;;;;;;;-2.96;100.00;101516.50;5038359;28;20190;-72
2022/12/17 13:45:18;;;;;;;47.85;24.30;;;;;;;-2.97;100.00;101514.69;5020096;28;20204;-71
2022/12/17 13:47:54;;;;;;;43.80;22.92;;;;;;;-3.11;100.00;101516.94;5033316;28;20287;-74
2022/12/17 13:50:23;;;;;;;49.10;23.85;;;;;;;-3.12;100.00;101516.91;5038568;28;20702;-71
2022/12/17 13:52:49;;;;;;;49.20;24.95;;;;;;;-3.04;100.00;101513.63;5037990;28;20202;-72
2022/12/17 13:55:21;;;;;;;44.42;23.98;;;;;;;-2.89;100.00;101507.00;5037293;28;20696;-72
2022/12/17 13:57:49;;;;;;;48.47;23.83;;;;;;;-3.02;100.00;101511.06;5035535;28;20637;-71
2022/12/17 14:00:22;;;;;;;48.17;24.25;;;;;;;-3.20;100.00;101512.31;5034297;28;20219;-72
2022/12/17 14:02:51;;;;;;;48.58;25.77;;;;;;;-3.13;100.00;101508.09;5036062;28;20232;-72
2022/12/17 14:05:29;;;;;;;50.42;26.67;;;;;;;-3.03;100.00;101509.25;5037539;28;20199;-72
2022/12/17 14:07:58;;;;;;;58.05;28.98;;;;;;;-2.98;100.00;101503.28;5036675;28;20604;-73
2022/12/17 14:10:25;;;;;;;54.97;26.88;;;;;;;-2.87;100.00;101500.94;5034712;28;20305;-72
2022/12/17 14:12:50;;;;;;;55.53;29.15;;;;;;;-2.77;100.00;101502.06;5035618;28;20290;-74
2022/12/17 14:15:24;;;;;;;52.47;26.97;;;;;;;-2.87;100.00;101503.56;5035866;28;20253;-72
2022/12/17 14:17:53;;;;;;;46.83;25.23;;;;;;;-2.97;100.00;101506.78;5017549;28;20203;-72
2022/12/17 14:20:22;;;;;;;54.10;26.55;;;;;;;-2.98;100.00;101512.94;5042279;28;20285;-72
2022/12/17 14:22:51;;;;;;;47.13;25.17;;;;;;;-3.19;100.00;101514.13;5040286;28;20264;-74
2022/12/17 14:25:19;;;;;;;50.17;25.38;;;;;;;-3.27;100.00;101507.72;5036612;28;20253;-75
2022/12/17 14:27:55;;;;;;;52.22;26.35;;;;;;;-3.45;100.00;101520.38;5034391;28;20206;-71
2022/12/17 14:30:25;;;;;;;53.30;25.52;;;;;;;-3.45;100.00;101515.97;5034888;28;20275;-74
2022/12/17 14:32:53;;;;;;;47.40;24.67;;;;;;;-3.48;100.00;101522.88;5037547;28;20208;-72
2022/12/17 14:35:25;;;;;;;53.30;26.85;;;;;;;-3.42;100.00;101523.06;5036777;28;20271;-74
2022/12/17 14:37:52;;;;;;;52.22;26.10;;;;;;;-3.34;100.00;101524.22;5036230;28;20291;-74
2022/12/17 14:40:19;;;;;;;49.00;25.60;;;;;;;-3.37;100.00;101521.47;5038454;28;20219;-73
2022/12/17 14:42:45;;;;;;;50.50;25.40;;;;;;;-3.36;100.00;101520.63;5038575;28;20202;-73
2022/12/17 14:45:24;;;;;;;53.67;25.55;;;;;;;-3.47;100.00;101520.31;5034907;28;20232;-74
2022/12/17 14:47:56;;;;;;;46.33;22.20;;;;;;;-3.45;100.00;101523.88;5034916;28;20256;-72
2022/12/17 14:50:30;;;;;;;50.70;25.50;;;;;;;-3.46;100.00;101522.13;5037935;28;20231;-72
2022/12/17 14:52:58;;;;;;;71.97;33.55;;;;;;;-3.52;100.00;101521.03;5039773;28;20191;-72
2022/12/17 14:55:36;;;;;;;65.15;32.00;;;;;;;-3.56;100.00;101528.81;5039495;28;20223;-73
2022/12/17 14:58:16;;;;;;;58.17;27.13;;;;;;;-3.58;100.00;101535.78;5037417;28;20286;-72
2022/12/17 15:00:45;;;;;;;50.58;26.30;;;;;;;-3.61;100.00;101540.97;5036404;28;20191;-74
2022/12/17 15:03:18;;;;;;;49.63;24.63;;;;;;;-3.70;100.00;101538.06;5039472;28;20198;-73
2022/12/17 15:05:48;;;;;;;52.80;26.73;;;;;;;-3.74;100.00;101538.81;5038828;28;20184;-73
2022/12/17 15:08:15;;;;;;;59.30;26.65;;;;;;;-3.79;100.00;101543.94;5037940;28;20195;-74
2022/12/17 15:10:41;;;;;;;50.40;24.85;;;;;;;-3.94;100.00;101537.28;5038605;28;20198;-73
2022/12/17 15:13:08;;;;;;;49.58;22.48;;;;;;;-4.02;100.00;101552.84;5038381;28;20720;-73
2022/12/17 15:15:35;;;;;;;43.30;22.45;;;;;;;-4.04;100.00;101547.50;5039650;28;20233;-74
2022/12/17 15:18:01;;;;;;;47.97;24.40;;;;;;;-4.03;100.00;101549.28;5041216;28;20206;-71
2022/12/17 15:20:30;;;;;;;50.67;25.00;;;;;;;-4.11;100.00;101549.91;5035903;28;20206;-76
2022/12/17 15:22:56;;;;;;;47.83;23.65;;;;;;;-4.15;100.00;101550.66;5037487;28;20207;-73
2022/12/17 15:25:23;;;;;;;52.25;24.42;;;;;;;-4.21;100.00;101557.47;5038390;28;20186;-74
2022/12/17 15:27:50;;;;;;;53.03;23.55;;;;;;;-4.31;100.00;101558.03;5037402;28;20197;-73
2022/12/17 15:30:17;;;;;;;42.53;23.77;;;;;;;-4.27;100.00;101569.56;5037600;28;20210;-73
2022/12/17 15:32:45;;;;;;;50.70;25.30;;;;;;;-4.32;100.00;101563.22;5038816;28;20209;-72
2022/12/17 15:35:12;;;;;;;51.00;24.48;;;;;;;-4.38;100.00;101566.56;5036632;28;20690;-74
2022/12/17 15:37:40;;;;;;;52.88;25.20;;;;;;;-4.51;100.00;101567.84;5036577;28;20196;-72
2022/12/17 15:40:10;;;;;;;44.85;23.70;;;;;;;-4.57;100.00;101569.38;5037788;28;20236;-75
2022/12/17 15:45:21;;;;;;;47.60;25.25;;;;;;;-4.61;100.00;101574.53;5039400;28;20210;-74
2022/12/17 15:47:47;;;;;;;54.05;22.90;;;;;;;-4.62;100.00;101575.38;5037200;28;20202;-74
2022/12/17 15:50:14;;;;;;;49.72;22.58;;;;;;;-4.53;100.00;101577.44;5037892;28;20312;-72
2022/12/17 15:52:42;;;;;;;56.75;25.25;;;;;;;-4.60;100.00;101575.44;5036919;28;20198;-73
2022/12/17 15:55:09;;;;;;;57.78;29.25;;;;;;;-4.72;100.00;101577.66;5036947;28;20346;-71
2022/12/17 15:57:36;;;;;;;48.70;23.88;;;;;;;-4.82;100.00;101576.41;5032312;28;20562;-72
2022/12/17 16:00:03;;;;;;;54.22;23.38;;;;;;;-4.70;100.00;101586.47;5036607;28;20218;-72
2022/12/17 16:02:29;;;;;;;60.22;25.55;;;;;;;-4.75;100.00;101574.88;5037241;28;20216;-73
2022/12/17 16:04:56;;;;;;;54.10;24.42;;;;;;;-4.71;100.00;101580.31;5038208;28;20487;-71
2022/12/17 16:07:22;;;;;;;60.10;25.45;;;;;;;-4.71;100.00;101577.69;5038763;28;20617;-71
2022/12/17 16:09:50;;;;;;;54.70;24.25;;;;;;;-4.67;100.00;101579.56;5035434;28;20218;-72
2022/12/17 16:12:17;;;;;;;54.88;23.05;;;;;;;-4.72;100.00;101586.41;5039017;28;20265;-72
2022/12/17 16:14:44;;;;;;;61.15;23.85;;;;;;;-4.67;100.00;101581.31;5039514;28;20198;-73
2022/12/17 16:17:11;;;;;;;55.50;22.73;;;;;;;-4.63;100.00;101583.22;5042367;28;20282;-72
2022/12/17 16:19:37;;;;;;;52.65;23.20;;;;;;;-4.61;100.00;101597.31;5039608;28;20217;-73
2022/12/17 16:22:04;;;;;;;59.75;23.08;;;;;;;-4.68;100.00;101590.03;5039051;28;20212;-71
2022/12/17 16:24:30;;;;;;;57.50;27.20;;;;;;;-4.73;100.00;101596.88;5040429;28;20575;-72
2022/12/17 16:26:59;;;;;;;56.70;24.15;;;;;;;-4.78;100.00;101606.31;5037743;28;20301;-72
2022/12/17 16:29:26;;;;;;;57.45;24.67;;;;;;;-4.86;100.00;101600.78;5037782;28;20597;-73
2022/12/17 16:31:53;;;;;;;49.58;23.13;;;;;;;-4.79;100.00;101607.16;5039164;28;20198;-73
2022/12/17 16:34:19;;;;;;;54.50;24.58;;;;;;;-4.86;100.00;101606.94;5042064;28;20202;-74
2022/12/17 16:36:46;;;;;;;60.20;23.77;;;;;;;-4.89;100.00;101606.81;5042266;28;20285;-72
2022/12/17 16:39:16;;;;;;;58.03;24.85;;;;;;;-4.76;100.00;101615.16;5035502;28;20239;-74
2022/12/17 16:41:42;;;;;;;50.63;23.52;;;;;;;-4.74;100.00;101613.50;5040105;28;20190;-75
2022/12/17 16:44:11;;;;;;;57.03;27.58;;;;;;;-4.75;100.00;101615.19;5046232;28;20228;-72
2022/12/17 16:46:39;;;;;;;61.70;29.98;;;;;;;-4.74;100.00;101608.22;5030818;28;20186;-71
2022/12/17 16:49:08;;;;;;;60.58;26.58;;;;;;;-4.74;100.00;101611.75;5059701;22;20235;-73
2022/12/17 16:51:35;;;;;;;52.80;25.20;;;;;;;-4.77;100.00;101613.34;5037119;28;20194;-74
2022/12/17 16:54:05;;;;;;;56.97;26.38;;;;;;;-4.71;100.00;101606.59;5040664;28;20209;-74
2022/12/17 16:56:31;;;;;;;58.00;27.23;;;;;;;-4.71;100.00;101616.22;5045525;28;20674;-75
2022/12/17 16:58:58;;;;;;;56.20;24.85;;;;;;;-4.70;100.00;101612.78;5044866;28;20294;-72
2022/12/17 17:01:28;;;;;;;52.90;24.77;;;;;;;-4.79;100.00;101613.31;5046892;28;20230;-73
2022/12/17 17:03:56;;;;;;;59.08;26.73;;;;;;;-4.82;100.00;101618.44;5051366;28;20198;-73
2022/12/17 17:06:24;;;;;;;58.40;24.35;;;;;;;-4.84;100.00;101618.41;5043079;28;20202;-73
2022/12/17 17:08:50;;;;;;;51.72;25.05;;;;;;;-4.86;100.00;101621.78;5042781;28;20237;-72
2022/12/17 17:11:20;;;;;;;51.78;24.52;;;;;;;-4.90;100.00;101628.69;5046042;28;20206;-73
2022/12/17 17:13:47;;;;;;;52.08;22.30;;;;;;;-4.96;100.00;101625.81;5048144;28;20285;-72
2022/12/17 17:16:14;;;;;;;59.28;25.80;;;;;;;-4.89;100.00;101632.22;5047035;28;20218;-73
2022/12/17 17:18:42;;;;;;;54.85;25.60;;;;;;;-4.78;100.00;101632.59;5050992;28;20209;-73
2022/12/17 17:21:14;;;;;;;56.88;27.08;;;;;;;-4.80;100.00;101629.03;5046204;28;20265;-75
2022/12/17 17:23:40;;;;;;;62.65;28.95;;;;;;;-4.73;100.00;101631.94;5042578;28;20221;-73
2022/12/17 17:26:07;;;;;;;63.05;28.35;;;;;;;-4.72;100.00;101636.34;5040452;28;20206;-74
2022/12/17 17:28:34;;;;;;;57.20;25.10;;;;;;;-4.76;100.00;101628.31;5036383;28;20289;-73
2022/12/17 17:31:01;;;;;;;66.35;26.13;;;;;;;-4.79;100.00;101629.09;5037127;28;20203;-74
2022/12/17 17:33:29;;;;;;;62.00;26.30;;;;;;;-4.77;100.00;101630.06;5039823;28;20292;-73
2022/12/17 17:36:03;;;;;;;52.28;23.40;;;;;;;-4.71;100.00;101632.88;5055725;28;20307;-74
2022/12/17 17:38:29;;;;;;;57.33;24.17;;;;;;;-4.73;100.00;101633.66;5036305;28;20202;-73
2022/12/17 17:40:56;;;;;;;83.88;32.92;;;;;;;-4.84;100.00;101639.44;5020106;28;20197;-72
2022/12/17 17:43:23;;;;;;;68.75;28.30;;;;;;;-4.80;100.00;101642.16;5036829;28;20198;-73
2022/12/17 17:45:50;;;;;;;66.28;25.98;;;;;;;-4.87;100.00;101641.94;5038760;28;20277;-73
2022/12/17 17:48:16;;;;;;;56.53;25.00;;;;;;;-4.93;100.00;101635.56;5037479;28;20221;-72
2022/12/17 17:50:43;;;;;;;45.28;22.70;;;;;;;-4.90;100.00;101657.59;5036211;28;20779;-74
2022/12/17 17:53:11;;;;;;;58.92;24.88;;;;;;;-4.84;100.00;101649.03;5037579;28;20230;-73
2022/12/17 17:55:37;;;;;;;54.08;24.90;;;;;;;-4.90;100.00;101640.94;5038054;28;20273;-73
2022/12/17 17:58:04;;;;;;;50.08;24.42;;;;;;;-4.88;100.00;101642.78;5036348;28;20185;-72
2022/12/17 18:00:30;;;;;;;59.95;27.25;;;;;;;-4.89;100.00;101638.34;5043168;28;20302;-74
2022/12/17 18:02:57;;;;;;;59.05;25.30;;;;;;;-4.90;100.00;101644.47;5037379;28;20639;-74
2022/12/17 18:05:24;;;;;;;58.95;25.00;;;;;;;-4.94;100.00;101645.19;5036515;28;20248;-72
2022/12/17 18:07:50;;;;;;;61.53;26.50;;;;;;;-5.00;100.00;101649.31;5035072;28;20202;-73
2022/12/17 18:10:18;;;;;;;68.07;28.52;;;;;;;-5.01;100.00;101645.78;5035604;28;20214;-73
2022/12/17 18:15:29;;;;;;;52.22;26.05;;;;;;;-4.94;100.00;101645.19;5036336;28;21253;-72
2022/12/17 18:17:55;;;;;;;51.90;24.95;;;;;;;-4.94;100.00;101650.44;5037994;28;20300;-74
2022/12/17 18:20:22;;;;;;;57.20;25.08;;;;;;;-4.95;100.00;101659.16;5039406;28;20229;-72
2022/12/17 18:22:49;;;;;;;60.63;26.55;;;;;;;-4.97;100.00;101655.59;5043725;28;20289;-72
2022/12/17 18:25:16;;;;;;;59.63;28.17;;;;;;;-5.00;100.00;101659.81;5044953;28;20258;-73
2022/12/17 18:27:44;;;;;;;58.83;25.15;;;;;;;-5.00;100.00;101660.69;5056633;28;20293;-73
2022/12/17 18:30:12;;;;;;;53.95;26.30;;;;;;;-5.04;100.00;101661.44;5048151;28;20314;-75
2022/12/17 18:32:38;;;;;;;65.50;26.48;;;;;;;-5.05;100.00;101663.16;5039004;28;20202;-72
2022/12/17 18:35:06;;;;;;;63.17;26.88;;;;;;;-4.97;100.00;101675.72;5041516;28;20209;-72
2022/12/17 18:37:32;;;;;;;63.95;26.58;;;;;;;-4.97;100.00;101668.72;5049652;28;20286;-71
2022/12/17 18:39:59;;;;;;;62.25;26.00;;;;;;;-4.98;100.00;101663.41;5047438;28;20214;-74
2022/12/17 18:45:11;;;;;;;66.90;28.20;;;;;;;-5.09;100.00;101670.84;5042068;28;20723;-73
2022/12/17 18:47:37;;;;;;;57.38;26.77;;;;;;;-5.06;100.00;101661.38;5041859;28;20198;-73
2022/12/17 18:50:05;;;;;;;60.63;28.45;;;;;;;-5.18;100.00;101671.41;5041241;28;20249;-74
2022/12/17 18:52:31;;;;;;;60.90;24.60;;;;;;;-5.19;100.00;101676.63;5041617;28;20190;-74
2022/12/17 18:54:58;;;;;;;56.03;24.67;;;;;;;-5.34;100.00;101675.16;5040538;28;20285;-73
2022/12/17 18:57:24;;;;;;;62.22;25.73;;;;;;;-5.41;100.00;101677.50;5023209;28;20225;-72
2022/12/17 18:59:51;;;;;;;62.55;26.02;;;;;;;-5.54;100.00;101676.09;5026341;28;20218;-75
2022/12/17 19:02:19;;;;;;;55.08;25.38;;;;;;;-5.59;100.00;101677.63;5045119;28;20281;-75
2022/12/17 19:04:46;;;;;;;58.00;24.48;;;;;;;-5.49;100.00;101679.81;5044964;28;20202;-75
2022/12/17 19:07:12;;;;;;;66.32;26.15;;;;;;;-5.45;100.00;101697.47;5043072;28;20211;-74
2022/12/17 19:09:41;;;;;;;52.25;23.42;;;;;;;-5.43;100.00;101684.41;5041205;28;20311;-75
2022/12/17 19:12:09;;;;;;;51.03;22.30;;;;;;;-5.50;100.00;101686.78;5041991;28;20706;-76
2022/12/17 19:14:37;;;;;;;63.63;26.00;;;;;;;-5.50;100.00;101693.75;5044464;28;20237;-75
2022/12/17 19:17:04;;;;;;;55.53;23.95;;;;;;;-5.39;100.00;101696.84;5037595;28;20726;-75
2022/12/17 19:19:33;;;;;;;53.65;23.52;;;;;;;-5.37;100.00;101703.94;5037713;28;20281;-74
2022/12/17 19:22:00;;;;;;;52.20;23.50;;;;;;;-5.45;100.00;101687.88;5038082;28;20204;-75
2022/12/17 19:24:27;;;;;;;56.47;24.48;;;;;;;-5.41;100.00;101693.25;5038085;28;20198;-74
2022/12/17 19:26:54;;;;;;;75.35;28.17;;;;;;;-5.52;100.00;101693.69;5037985;28;20198;-74
2022/12/17 19:29:21;;;;;;;58.33;26.20;;;;;;;-5.53;100.00;101691.91;5037086;28;20687;-74
2022/12/17 19:31:48;;;;;;;51.53;22.92;;;;;;;-5.56;100.00;101696.13;5035083;28;20204;-76
2022/12/17 19:34:16;;;;;;;49.75;23.33;;;;;;;-5.68;100.00;101686.91;5046319;28;20316;-74
2022/12/17 19:36:45;;;;;;;53.88;22.90;;;;;;;-5.63;100.00;101695.00;5052010;28;20392;-75
2022/12/17 19:39:15;;;;;;;43.58;20.60;;;;;;;-5.57;100.00;101697.88;5052300;28;20305;-75
2022/12/17 19:41:42;;;;;;;60.63;26.10;;;;;;;-5.58;100.00;101697.81;5046151;28;20206;-75
2022/12/17 19:44:12;;;;;;;51.22;23.95;;;;;;;-5.63;100.00;101688.84;5042347;28;20194;-73
2022/12/17 19:46:39;;;;;;;53.22;24.70;;;;;;;-5.62;100.00;101696.78;5048509;28;20288;-75
2022/12/17 19:49:06;;;;;;;50.35;23.70;;;;;;;-5.68;100.00;101700.03;5057605;28;20778;-76
2022/12/17 19:51:33;;;;;;;50.05;23.23;;;;;;;-5.64;100.00;101702.81;5040323;28;20201;-78
2022/12/17 19:54:01;;;;;;;46.55;22.40;;;;;;;-5.67;100.00;101699.22;5041336;28;20198;-76
2022/12/17 19:56:29;;;;;;;50.97;22.20;;;;;;;-5.67;100.00;101696.59;5041065;28;20256;-75
2022/12/17 19:58:57;;;;;;;38.35;19.70;;;;;;;-5.63;100.00;101683.59;5040208;28;20650;-73
2022/12/17 20:01:25;;;;;;;45.03;21.38;;;;;;;-5.68;100.00;101689.53;5041518;28;20229;-74
2022/12/17 20:03:53;;;;;;;50.35;21.80;;;;;;;-5.72;100.00;101690.28;5059386;28;20243;-74
2022/12/17 20:06:22;;;;;;;50.00;20.63;;;;;;;-5.73;100.00;101691.09;5069894;28;20269;-73
2022/12/17 20:08:50;;;;;;;45.70;21.08;;;;;;;-5.70;100.00;101695.56;5043667;28;20230;-75
2022/12/17 20:14:01;;;;;;;45.83;19.88;;;;;;;-5.66;100.00;101697.50;5044996;28;20201;-74
2022/12/17 20:16:28;;;;;;;46.63;22.27;;;;;;;-5.69;100.00;101695.63;5042070;28;20201;-73
2022/12/17 20:18:55;;;;;;;54.95;21.58;;;;;;;-5.64;100.00;101694.94;5039967;28;20221;-74
2022/12/17 20:21:21;;;;;;;47.67;22.23;;;;;;;-5.66;100.00;101703.63;5046344;28;20198;-73
2022/12/17 20:23:49;;;;;;;55.50;23.42;;;;;;;-5.60;100.00;101703.00;5049334;28;20208;-75
2022/12/17 20:26:16;;;;;;;52.05;24.02;;;;;;;-5.54;100.00;101707.59;5048421;28;20236;-75
2022/12/17 20:28:45;;;;;;;48.65;22.42;;;;;;;-5.64;100.00;101713.31;5047272;28;20237;-73
2022/12/17 20:31:13;;;;;;;50.45;27.27;;;;;;;-5.67;100.00;101716.72;5035385;28;20254;-77
2022/12/17 20:33:40;;;;;;;49.55;23.50;;;;;;;-5.80;100.00;101723.16;5047642;28;20208;-75
2022/12/17 20:36:09;;;;;;;54.13;22.63;;;;;;;-5.80;100.00;101725.78;5047606;28;20194;-76
2022/12/17 20:38:36;;;;;;;49.60;21.90;;;;;;;-5.85;100.00;101722.09;5039478;28;20214;-74
2022/12/17 20:41:08;;;;;;;44.25;21.00;;;;;;;-5.91;100.00;101732.31;5045447;28;20600;-73
2022/12/17 20:43:35;;;;;;;49.08;21.58;;;;;;;-5.92;100.00;101738.41;5046264;28;20190;-75
2022/12/17 20:46:03;;;;;;;47.03;21.50;;;;;;;-5.94;100.00;101738.31;5052279;28;20270;-74
2022/12/17 20:48:30;;;;;;;58.88;24.13;;;;;;;-5.92;100.00;101741.03;5051172;28;20208;-74
2022/12/17 20:50:56;;;;;;;46.35;21.25;;;;;;;-5.93;100.00;101728.72;5048726;28;20288;-74
2022/12/17 20:53:23;;;;;;;51.10;21.73;;;;;;;-5.98;100.00;101740.78;5049800;28;20196;-74
2022/12/17 20:55:59;;;;;;;53.38;23.25;;;;;;;-6.04;100.00;101733.53;5047743;28;20225;-73
2022/12/17 20:58:26;;;;;;;48.72;23.40;;;;;;;-6.05;100.00;101730.88;5048315;28;20285;-75
2022/12/17 21:00:52;;;;;;;52.75;22.45;;;;;;;-6.10;100.00;101731.56;5049453;28;20248;-75
2022/12/17 21:03:20;;;;;;;49.05;21.40;;;;;;;-6.15;100.00;101727.84;5048026;28;20305;-74
2022/12/17 21:05:47;;;;;;;58.25;22.05;;;;;;;-6.14;100.00;101721.75;5048403;28;20198;-75
2022/12/17 21:08:13;;;;;;;49.92;19.92;;;;;;;-6.25;100.00;101732.59;5046446;28;20197;-74
2022/12/17 21:10:40;;;;;;;44.90;22.05;;;;;;;-6.24;100.00;101729.13;5048641;28;20285;-74
2022/12/17 21:15:54;;;;;;;54.83;22.70;;;;;;;-6.19;100.00;101725.91;5039475;28;20233;-74
2022/12/17 21:18:22;;;;;;;46.20;20.30;;;;;;;-6.24;100.00;101716.97;5047725;28;20266;-75
2022/12/17 21:20:55;;;;;;;41.13;19.88;;;;;;;-6.31;100.00;101728.91;5051703;28;20281;-75
2022/12/17 21:23:21;;;;;;;49.47;20.42;;;;;;;-6.36;100.00;101732.13;5050202;28;20205;-74
2022/12/17 21:25:48;;;;;;;48.88;21.25;;;;;;;-6.42;100.00;101737.09;5046840;28;20201;-74
2022/12/17 21:28:15;;;;;;;48.25;21.25;;;;;;;-6.52;100.00;101731.44;5048126;28;20232;-74
2022/12/17 21:30:41;;;;;;;45.75;21.45;;;;;;;-6.57;100.00;101746.06;5045489;28;20220;-75
2022/12/17 21:33:08;;;;;;;38.78;20.95;;;;;;;-6.62;100.00;101752.81;5047497;28;20248;-74
2022/12/17 21:35:37;;;;;;;49.03;19.58;;;;;;;-6.63;100.00;101737.91;5044977;28;20262;-73
2022/12/17 21:38:03;;;;;;;51.08;21.88;;;;;;;-6.67;100.00;101749.09;5047197;28;20306;-73
2022/12/17 21:40:30;;;;;;;48.72;20.67;;;;;;;-6.73;100.00;101751.44;5048413;28;20739;-74
2022/12/17 21:43:02;;;;;;;48.20;20.50;;;;;;;-6.76;100.00;101756.50;5043606;28;20216;-74
2022/12/17 21:45:35;;;;;;;42.63;20.10;;;;;;;-6.79;100.00;101759.00;5049529;28;20273;-75
2022/12/17 21:48:01;;;;;;;50.25;20.67;;;;;;;-6.78;100.00;101773.91;5048335;28;20202;-74
2022/12/17 21:50:28;;;;;;;45.70;20.75;;;;;;;-6.83;100.00;101778.00;5040041;28;20254;-74
2022/12/17 21:52:56;;;;;;;55.05;23.85;;;;;;;-6.84;100.00;101771.88;5035239;28;20567;-75
2022/12/17 21:55:22;;;;;;;49.17;23.38;;;;;;;-6.88;100.00;101766.44;5045830;28;20194;-75
2022/12/17 21:57:49;;;;;;;52.97;24.00;;;;;;;-6.83;100.00;101762.28;5043500;28;20224;-74
2022/12/17 22:00:16;;;;;;;44.60;20.10;;;;;;;-6.80;100.00;101765.97;5045351;28;20217;-74
2022/12/17 22:02:43;;;;;;;45.13;20.48;;;;;;;-6.72;100.00;101775.06;5044340;28;20236;-76
2022/12/17 22:05:10;;;;;;;51.22;21.92;;;;;;;-6.65;100.00;101771.00;5047701;28;20194;-74
2022/12/17 22:07:36;;;;;;;55.22;23.52;;;;;;;-6.64;100.00;101772.81;5048218;28;20616;-74
2022/12/17 22:10:05;;;;;;;50.90;21.45;;;;;;;-6.64;100.00;101779.78;5044334;28;20244;-74
2022/12/17 22:15:16;;;;;;;51.70;21.92;;;;;;;-6.57;100.00;101771.38;5046149;28;20204;-74
2022/12/17 22:17:42;;;;;;;53.60;21.20;;;;;;;-6.66;100.00;101764.00;5047121;28;20253;-73
2022/12/17 22:20:10;;;;;;;48.85;21.90;;;;;;;-6.62;100.00;101763.31;5048902;28;20298;-74
2022/12/17 22:22:37;;;;;;;49.85;21.40;;;;;;;-6.61;100.00;101764.19;5032950;28;20198;-74
2022/12/17 22:25:06;;;;;;;41.78;21.05;;;;;;;-6.69;100.00;101776.97;5048050;28;20288;-75
2022/12/17 22:27:32;;;;;;;42.72;21.13;;;;;;;-6.72;100.00;101767.19;5048561;28;20240;-73
2022/12/17 22:35:26;;;;;;;51.85;22.38;;;;;;;-6.98;100.00;101758.13;4989379;28;20207;-75
2022/12/17 22:37:53;;;;;;;45.90;19.35;;;;;;;-7.07;100.00;101765.56;4990117;28;20283;-72
2022/12/17 22:40:21;;;;;;;42.63;18.98;;;;;;;-7.14;100.00;101763.47;4984859;28;20221;-75
2022/12/17 22:45:32;;;;;;;43.42;19.48;;;;;;;-7.26;100.00;101769.00;4988666;28;20207;-73
2022/12/17 22:47:59;;;;;;;42.33;18.23;;;;;;;-7.33;100.00;101759.06;4987775;28;20273;-73
2022/12/17 22:50:25;;;;;;;41.15;18.98;;;;;;;-7.37;100.00;101757.09;5034420;22;20229;-75
2022/12/17 22:52:52;;;;;;;43.85;18.67;;;;;;;-7.39;100.00;101762.28;5054841;28;20207;-74
2022/12/17 22:55:18;;;;;;;44.10;18.50;;;;;;;-7.43;100.00;101765.56;5054881;28;20227;-74
2022/12/17 22:57:46;;;;;;;37.20;17.40;;;;;;;-7.53;100.00;101765.91;5053697;28;20268;-73
2022/12/17 23:00:17;;;;;;;41.00;19.77;;;;;;;-7.55;100.00;101767.59;5054310;28;20220;-74
2022/12/17 23:02:44;;;;;;;45.42;20.65;;;;;;;-7.58;100.00;101760.44;5054444;28;20197;-75
2022/12/17 23:05:10;;;;;;;44.50;22.02;;;;;;;-7.56;100.00;101763.16;5057912;28;20758;-74
2022/12/17 23:07:37;;;;;;;43.28;20.40;;;;;;;-7.58;100.00;101762.19;5058298;28;20197;-76
2022/12/17 23:10:04;;;;;;;47.15;19.27;;;;;;;-7.61;100.00;101769.88;5061843;28;20284;-74
2022/12/17 23:15:16;;;;;;;36.60;17.20;;;;;;;-7.61;100.00;101772.50;5061306;28;20204;-74
2022/12/17 23:17:43;;;;;;;53.70;24.00;;;;;;;-7.64;100.00;101765.41;5060585;28;20228;-74
2022/12/17 23:20:10;;;;;;;47.53;22.33;;;;;;;-7.62;100.00;101765.47;5061340;28;20820;-74
2022/12/17 23:22:37;;;;;;;47.58;22.00;;;;;;;-7.64;100.00;101762.78;5057888;28;20220;-74
2022/12/17 23:25:04;;;;;;;41.08;19.45;;;;;;;-7.64;100.00;101756.63;5057523;28;20203;-75
2022/12/17 23:27:31;;;;;;;40.35;18.25;;;;;;;-7.61;100.00;101757.69;5059943;28;20259;-74
2022/12/17 23:29:58;;;;;;;48.15;19.13;;;;;;;-7.59;100.00;101763.91;5058106;28;20312;-75
2022/12/17 23:32:26;;;;;;;39.50;18.98;;;;;;;-7.64;100.00;101765.41;5056907;28;20213;-73
2022/12/17 23:34:53;;;;;;;41.70;18.40;;;;;;;-7.62;100.00;101769.00;5056643;28;20205;-74
2022/12/17 23:37:19;;;;;;;41.00;16.95;;;;;;;-7.65;100.00;101763.59;5061169;28;20190;-75
2022/12/17 23:39:46;;;;;;;41.58;16.45;;;;;;;-7.66;100.00;101767.03;5050908;28;20303;-74
2022/12/17 23:42:12;;;;;;;40.60;19.60;;;;;;;-7.69;100.00;101765.97;5057861;28;20204;-74
2022/12/17 23:44:39;;;;;;;41.03;19.35;;;;;;;-7.71;100.00;101770.22;5041400;28;20221;-75
2022/12/17 23:47:05;;;;;;;49.20;23.65;;;;;;;-7.72;100.00;101765.84;5062231;28;20577;-74
2022/12/17 23:49:33;;;;;;;42.72;21.13;;;;;;;-7.70;100.00;101772.94;5059011;28;20213;-73
2022/12/17 23:52:00;;;;;;;38.80;18.92;;;;;;;-7.58;100.00;101778.78;5061078;28;20563;-74
2022/12/17 23:54:26;;;;;;;41.13;18.60;;;;;;;-7.56;100.00;101774.50;5064216;28;20223;-73
2022/12/17 23:56:53;;;;;;;42.35;19.95;;;;;;;-7.50;100.00;101773.94;5064795;28;20202;-76
2022/12/17 23:59:20;;;;;;;48.90;18.38;;;;;;;-7.49;100.00;101777.44;5060946;28;20213;-75
